createdAt,value
2019-03-01T00:02:37.029Z,3.40
2019-03-01T00:05:45.256Z,3.13
2019-03-01T00:08:53.499Z,2.37
2019-03-01T00:11:50.493Z,2.80
2019-03-01T00:14:58.628Z,2.80
2019-03-01T00:18:06.791Z,2.70
2019-03-01T00:21:15.145Z,2.70
2019-03-01T00:24:23.366Z,2.53
2019-03-01T00:27:31.461Z,2.47
2019-03-01T00:30:20.027Z,2.80
2019-03-01T00:33:28.202Z,2.60
2019-03-01T00:36:38.965Z,2.80
2019-03-01T00:39:47.657Z,2.30
2019-03-01T00:42:55.807Z,2.50
2019-03-01T00:45:46.446Z,1.87
2019-03-01T00:48:35.959Z,2.30
2019-03-01T00:51:25.118Z,2.60
2019-03-01T00:53:55.328Z,2.53
2019-03-01T00:56:44.387Z,3.00
2019-03-01T00:59:33.538Z,2.53
2019-03-01T01:05:11.711Z,2.90
2019-03-01T01:08:00.793Z,2.33
2019-03-01T01:10:49.799Z,2.37
2019-03-01T01:13:38.988Z,1.93
2019-03-01T01:16:27.920Z,2.00
2019-03-01T01:22:30.925Z,2.10
2019-03-01T01:25:20.151Z,1.87
2019-03-01T01:28:09.495Z,2.13
2019-03-01T01:30:59.046Z,1.90
2019-03-01T01:33:48.040Z,2.07
2019-03-01T01:36:29.627Z,1.97
2019-03-01T01:39:12.024Z,2.50
2019-03-01T01:41:56.106Z,1.70
2019-03-01T01:44:37.761Z,1.73
2019-03-01T01:47:19.418Z,2.03
2019-03-01T01:50:01.936Z,1.60
2019-03-01T01:52:44.122Z,1.87
2019-03-01T01:55:27.157Z,2.10
2019-03-01T01:58:09.336Z,1.50
2019-03-01T02:00:51.156Z,1.97
2019-03-01T02:03:33.200Z,1.73
2019-03-01T02:06:15.605Z,2.17
2019-03-01T02:08:56.911Z,1.97
2019-03-01T02:11:38.811Z,2.03
2019-03-01T02:14:21.141Z,1.73
2019-03-01T02:16:51.116Z,1.90
2019-03-01T02:19:21.257Z,1.97
2019-03-01T02:21:51.321Z,1.83
2019-03-01T02:24:21.265Z,2.30
2019-03-01T02:27:29.494Z,2.20
2019-03-01T02:30:19.813Z,1.97
2019-03-01T02:32:51.513Z,2.23
2019-03-01T02:35:40.449Z,2.23
2019-03-01T02:38:31.065Z,2.20
2019-03-01T02:41:20.274Z,2.07
2019-03-01T02:44:09.399Z,2.60
2019-03-01T02:46:58.883Z,2.07
2019-03-01T02:49:48.109Z,2.00
2019-03-01T02:52:37.135Z,2.23
2019-03-01T02:55:26.550Z,2.13
2019-03-01T02:58:15.673Z,2.00
2019-03-01T03:01:04.634Z,2.10
2019-03-01T03:03:53.627Z,1.83
2019-03-01T03:09:57.112Z,1.77
2019-03-01T03:12:46.527Z,1.47
2019-03-01T03:15:54.708Z,1.47
2019-03-01T03:18:44.171Z,1.70
2019-03-01T03:21:35.372Z,1.30
2019-03-01T03:24:38.451Z,1.60
2019-03-01T03:27:27.419Z,1.57
2019-03-01T03:30:08.872Z,1.63
2019-03-01T03:32:38.922Z,1.40
2019-03-01T03:35:09.044Z,1.40
2019-03-01T03:37:39.087Z,1.50
2019-03-01T03:40:09.953Z,1.40
2019-03-01T03:42:59.147Z,1.63
2019-03-01T03:45:48.283Z,1.50
2019-03-01T03:48:18.634Z,1.63
2019-03-01T03:51:07.673Z,2.03
2019-03-01T03:53:57.007Z,1.70
2019-03-01T03:56:46.372Z,2.00
2019-03-01T03:59:35.525Z,1.80
2019-03-01T04:02:24.043Z,1.80
2019-03-01T04:05:13.267Z,1.93
2019-03-01T04:08:02.570Z,2.07
2019-03-01T04:10:51.604Z,2.10
2019-03-01T04:13:21.527Z,1.97
2019-03-01T04:16:10.666Z,2.03
2019-03-01T04:18:59.715Z,2.10
2019-03-01T04:21:29.821Z,1.90
2019-03-01T04:23:59.852Z,2.00
2019-03-01T04:26:29.998Z,2.10
2019-03-01T04:29:00.162Z,1.90
2019-03-01T04:31:49.298Z,1.93
2019-03-01T04:34:38.650Z,1.90
2019-03-01T04:37:47.204Z,2.43
2019-03-01T04:40:37.569Z,2.10
2019-03-01T04:43:26.824Z,2.10
2019-03-01T04:46:16.039Z,1.90
2019-03-01T04:49:05.260Z,2.10
2019-03-01T04:51:54.335Z,2.10
2019-03-01T04:54:43.369Z,2.23
2019-03-01T04:57:13.251Z,2.00
2019-03-01T05:00:05.103Z,2.27
2019-03-01T05:02:54.387Z,1.90
2019-03-01T05:05:43.694Z,3.83
2019-03-01T05:08:32.760Z,2.13
2019-03-01T05:11:22.110Z,1.80
2019-03-01T05:14:11.522Z,1.77
2019-03-01T05:16:53.387Z,1.80
2019-03-01T05:19:34.626Z,1.70
2019-03-01T05:22:16.743Z,1.47
2019-03-01T05:24:58.451Z,2.23
2019-03-01T05:27:40.194Z,1.77
2019-03-01T05:30:22.012Z,2.43
2019-03-01T05:33:06.146Z,2.27
2019-03-01T05:35:47.942Z,2.10
2019-03-01T05:41:12.626Z,1.80
2019-03-01T05:43:54.553Z,1.80
2019-03-01T05:46:39.781Z,1.67
2019-03-01T05:49:21.819Z,1.40
2019-03-01T05:52:03.821Z,1.53
2019-03-01T05:54:45.485Z,1.43
2019-03-01T05:57:26.793Z,1.50
2019-03-01T06:00:08.762Z,1.50
2019-03-01T06:02:51.269Z,1.57
2019-03-01T06:05:33.475Z,1.57
2019-03-01T06:08:15.639Z,1.60
2019-03-01T06:10:57.432Z,1.40
2019-03-01T06:13:39.535Z,1.50
2019-03-01T06:16:21.736Z,1.50
2019-03-01T06:19:02.984Z,0.90
2019-03-01T06:21:44.976Z,0.90
2019-03-01T06:24:26.877Z,0.90
2019-03-01T06:27:35.143Z,0.70
2019-03-01T06:30:51.684Z,0.80
2019-03-01T06:33:53.146Z,0.80
2019-03-01T06:37:01.415Z,0.70
2019-03-01T06:44:00.408Z,0.90
2019-03-01T06:47:08.579Z,0.90
2019-03-01T06:50:16.557Z,0.90
2019-03-01T06:53:05.609Z,0.80
2019-03-01T06:56:13.995Z,1.30
2019-03-01T06:59:03.972Z,1.10
2019-03-01T07:01:53.739Z,1.20
2019-03-01T07:04:43.148Z,0.90
2019-03-01T07:07:13.067Z,0.70
2019-03-01T07:10:02.339Z,1.53
2019-03-01T07:12:51.363Z,1.90
2019-03-01T07:15:40.686Z,3.77
2019-03-01T07:18:29.672Z,1.10
2019-03-01T07:21:19.034Z,2.30
2019-03-01T07:24:08.402Z,1.80
2019-03-01T07:26:57.498Z,1.13
2019-03-01T07:29:46.486Z,2.23
2019-03-01T07:32:16.670Z,1.90
2019-03-01T07:35:05.857Z,1.00
2019-03-01T07:37:55.030Z,2.70
2019-03-01T07:40:44.359Z,0.90
2019-03-01T07:43:34.151Z,1.67
2019-03-01T07:49:36.702Z,1.00
2019-03-01T07:52:25.688Z,0.90
2019-03-01T07:55:14.962Z,1.20
2019-03-01T07:57:46.607Z,4.60
2019-03-01T08:04:09.199Z,5.33
2019-03-01T08:06:57.916Z,1.50
2019-03-01T08:09:46.991Z,2.57
2019-03-01T08:12:38.726Z,1.63
2019-03-01T08:18:54.582Z,1.40
2019-03-01T08:21:45.858Z,1.40
2019-03-01T08:24:53.799Z,1.30
2019-03-01T08:27:25.323Z,1.33
2019-03-01T08:29:56.245Z,1.50
2019-03-01T08:32:27.369Z,1.90
2019-03-01T08:35:17.159Z,1.63
2019-03-01T08:38:06.308Z,1.90
2019-03-01T08:40:36.268Z,1.40
2019-03-01T08:43:24.741Z,1.70
2019-03-01T08:55:52.703Z,0.93
2019-03-01T08:58:22.895Z,1.37
2019-03-01T09:01:12.495Z,1.00
2019-03-01T09:04:02.923Z,1.40
2019-03-01T09:06:52.074Z,1.40
2019-03-01T09:09:41.343Z,2.07
2019-03-01T09:12:30.310Z,1.70
2019-03-01T09:15:19.592Z,5.57
2019-03-01T09:18:11.608Z,3.30
2019-03-01T09:21:18.985Z,3.73
2019-03-01T09:23:52.128Z,1.27
2019-03-01T09:30:09.304Z,1.60
2019-03-01T09:32:58.555Z,0.83
2019-03-01T09:36:06.663Z,1.93
2019-03-01T09:38:55.949Z,1.00
2019-03-01T09:41:45.237Z,1.27
2019-03-01T09:44:38.220Z,2.23
2019-03-01T09:47:48.092Z,1.80
2019-03-01T09:50:38.257Z,2.20
2019-03-01T09:53:39.958Z,2.13
2019-03-01T09:56:24.261Z,2.27
2019-03-01T09:59:06.366Z,4.50
2019-03-01T10:04:31.480Z,2.30
2019-03-01T10:07:13.074Z,1.57
2019-03-01T10:09:55.003Z,1.87
2019-03-01T10:12:36.269Z,3.20
2019-03-01T10:15:18.315Z,1.70
2019-03-01T10:18:00.179Z,1.60
2019-03-01T10:23:43.841Z,1.30
2019-03-01T10:26:33.279Z,1.47
2019-03-01T10:29:22.329Z,1.30
2019-03-01T10:32:12.486Z,1.60
2019-03-01T10:35:21.204Z,1.70
2019-03-01T10:41:18.291Z,1.40
2019-03-01T10:47:08.283Z,1.30
2019-03-01T10:49:50.655Z,1.40
2019-03-01T10:52:32.898Z,1.20
2019-03-01T10:55:14.588Z,1.43
2019-03-01T10:57:56.751Z,1.40
2019-03-01T11:00:38.078Z,2.30
2019-03-01T11:03:08.318Z,1.20
2019-03-01T11:05:57.271Z,1.43
2019-03-01T11:08:46.193Z,1.33
2019-03-01T11:14:49.512Z,1.30
2019-03-01T11:17:56.464Z,0.93
2019-03-01T11:20:45.463Z,1.07
2019-03-01T11:23:34.478Z,1.50
2019-03-01T11:26:23.754Z,1.60
2019-03-01T11:29:12.653Z,1.30
2019-03-01T11:32:01.909Z,1.20
2019-03-01T11:34:50.818Z,1.20
2019-03-01T11:37:20.658Z,2.63
2019-03-01T11:40:11.203Z,3.00
2019-03-01T11:42:53.414Z,2.97
2019-03-01T11:45:35.315Z,2.90
2019-03-01T11:48:17.345Z,1.43
2019-03-01T11:50:59.262Z,1.63
2019-03-01T11:53:40.538Z,1.70
2019-03-01T11:56:22.765Z,2.93
2019-03-01T11:58:52.550Z,1.43
2019-03-01T12:01:41.474Z,1.77
2019-03-01T12:07:38.566Z,1.47
2019-03-01T12:10:27.738Z,2.10
2019-03-01T12:13:16.724Z,1.50
2019-03-01T12:16:05.675Z,1.40
2019-03-01T12:18:55.286Z,2.83
2019-03-01T12:21:44.339Z,4.67
2019-03-01T12:24:33.308Z,1.43
2019-03-01T12:27:22.226Z,1.90
2019-03-01T12:30:13.114Z,1.20
2019-03-01T12:35:57.476Z,1.20
2019-03-01T12:38:46.498Z,1.10
2019-03-01T12:41:35.535Z,1.40
2019-03-01T12:44:24.567Z,1.40
2019-03-01T12:47:13.690Z,1.50
2019-03-01T12:50:03.866Z,1.30
2019-03-01T12:52:52.908Z,1.20
2019-03-01T12:55:41.894Z,1.30
2019-03-01T12:58:31.074Z,0.90
2019-03-01T13:01:20.092Z,1.43
2019-03-01T13:07:22.997Z,1.40
2019-03-01T13:10:13.404Z,1.00
2019-03-01T13:13:04.280Z,1.10
2019-03-01T13:16:12.754Z,1.10
2019-03-01T13:19:02.033Z,1.10
2019-03-01T13:21:51.306Z,1.23
2019-03-01T13:24:40.674Z,1.40
2019-03-01T13:31:04.377Z,1.50
2019-03-01T13:40:23.866Z,1.00
2019-03-01T13:43:30.790Z,1.33
2019-03-01T13:46:19.874Z,1.60
2019-03-01T13:49:08.892Z,1.70
2019-03-01T13:52:00.241Z,1.80
2019-03-01T13:54:49.655Z,1.70
2019-03-01T13:57:38.770Z,1.50
2019-03-01T14:00:27.795Z,1.57
2019-03-01T14:12:44.462Z,1.90
2019-03-01T14:15:35.030Z,1.47
2019-03-01T14:18:43.386Z,1.60
2019-03-01T14:27:47.838Z,1.93
2019-03-01T14:30:32.484Z,4.90
2019-03-01T14:33:13.062Z,2.63
2019-03-01T14:35:59.210Z,2.03
2019-03-01T14:38:38.770Z,2.07
2019-03-01T14:41:20.882Z,3.03
2019-03-01T14:44:03.985Z,3.83
2019-03-01T14:46:45.718Z,9.17
2019-03-01T14:49:28.188Z,3.33
2019-03-01T14:52:09.823Z,2.30
2019-03-01T14:54:51.094Z,2.37
2019-03-01T14:57:32.570Z,2.33
2019-03-01T15:00:15.243Z,3.27
2019-03-01T15:02:57.087Z,3.00
2019-03-01T15:05:41.975Z,2.80
2019-03-01T15:08:23.484Z,3.50
2019-03-01T15:11:08.048Z,3.60
2019-03-01T15:13:49.264Z,3.00
2019-03-01T15:16:30.892Z,3.40
2019-03-01T15:19:12.287Z,3.00
2019-03-01T15:21:53.842Z,2.40
2019-03-01T15:24:36.189Z,3.00
2019-03-01T15:27:18.994Z,1.87
2019-03-01T15:30:01.543Z,2.00
2019-03-01T15:32:43.318Z,1.40
2019-03-01T15:35:25.380Z,1.77
2019-03-01T15:37:55.951Z,1.97
2019-03-01T15:40:44.881Z,2.10
2019-03-01T15:46:41.995Z,2.40
2019-03-01T15:49:31.242Z,3.20
2019-03-01T15:52:20.349Z,3.40
2019-03-01T15:55:11.783Z,3.93
2019-03-01T15:58:03.361Z,4.37
2019-03-01T16:00:52.558Z,2.63
2019-03-01T16:03:41.819Z,3.10
2019-03-01T16:06:31.227Z,3.50
2019-03-01T16:12:29.016Z,3.10
2019-03-01T16:15:38.752Z,3.20
2019-03-01T16:21:56.139Z,3.80
2019-03-01T16:24:46.055Z,3.57
2019-03-01T16:40:50.267Z,6.83
2019-03-01T16:43:39.182Z,7.03
2019-03-01T16:46:31.102Z,7.10
2019-03-01T16:49:38.221Z,7.53
2019-03-01T16:52:30.174Z,7.30
2019-03-01T16:58:45.474Z,7.63
2019-03-01T17:01:34.738Z,6.17
2019-03-01T17:04:27.136Z,7.30
2019-03-01T17:13:34.438Z,7.30
2019-03-01T17:16:16.342Z,7.40
2019-03-01T17:18:57.969Z,8.43
2019-03-01T17:21:40.601Z,7.57
2019-03-01T17:24:22.142Z,7.77
2019-03-01T17:27:05.850Z,8.63
2019-03-01T17:29:38.753Z,8.70
2019-03-01T17:32:45.495Z,8.60
2019-03-01T17:35:37.804Z,10.90
2019-03-01T17:38:46.059Z,8.87
2019-03-01T17:41:15.998Z,10.63
2019-03-01T17:44:08.391Z,9.77
2019-03-01T17:46:36.500Z,17.10
2019-03-01T17:49:25.439Z,10.70
2019-03-01T17:52:14.590Z,11.20
2019-03-01T17:54:44.530Z,12.43
2019-03-01T17:57:33.998Z,12.37
2019-03-01T18:03:58.087Z,16.10
2019-03-01T18:06:59.054Z,19.17
2019-03-01T18:09:41.238Z,18.10
2019-03-01T18:12:23.125Z,26.67
2019-03-01T18:15:08.644Z,19.27
2019-03-01T18:17:49.212Z,17.13
2019-03-01T18:20:30.459Z,16.47
2019-03-01T18:23:11.684Z,20.20
2019-03-01T18:25:41.942Z,19.50
2019-03-01T18:34:58.487Z,13.90
2019-03-01T18:37:47.419Z,13.80
2019-03-01T18:40:36.379Z,14.00
2019-03-01T18:43:25.299Z,14.80
2019-03-01T18:46:14.639Z,13.07
2019-03-01T18:49:06.231Z,18.33
2019-03-01T18:52:17.661Z,13.50
2019-03-01T18:55:43.895Z,15.20
2019-03-01T18:58:32.861Z,14.43
2019-03-01T19:01:14.716Z,15.37
2019-03-01T19:03:58.937Z,15.47
2019-03-01T19:06:40.474Z,16.33
2019-03-01T19:09:22.502Z,17.10
2019-03-01T19:12:04.203Z,16.53
2019-03-01T19:14:46.299Z,15.90
2019-03-01T19:17:16.114Z,16.70
2019-03-01T19:20:06.614Z,18.07
2019-03-01T19:23:35.533Z,16.93
2019-03-01T19:26:28.062Z,15.93
2019-03-01T19:29:17.700Z,16.73
2019-03-01T19:32:27.607Z,16.80
2019-03-01T19:35:37.512Z,16.93
2019-03-01T19:38:46.459Z,18.27
2019-03-01T19:41:35.510Z,17.57
2019-03-01T19:44:25.662Z,17.07
2019-03-01T19:47:34.635Z,17.47
2019-03-01T19:50:25.021Z,22.70
2019-03-01T19:53:33.723Z,18.47
2019-03-01T19:56:18.864Z,18.70
2019-03-01T19:59:00.098Z,19.90
2019-03-01T20:01:42.575Z,19.03
2019-03-01T20:04:24.867Z,18.60
2019-03-01T20:09:49.542Z,18.60
2019-03-01T20:12:31.864Z,19.10
2019-03-01T20:15:13.935Z,19.13
2019-03-01T20:17:55.439Z,18.97
2019-03-01T20:23:43.931Z,22.63
2019-03-01T20:26:26.718Z,21.63
2019-03-01T20:29:09.486Z,21.90
2019-03-01T20:31:51.154Z,20.37
2019-03-01T20:34:34.762Z,20.37
2019-03-01T20:37:15.672Z,22.57
2019-03-01T20:39:56.993Z,32.27
2019-03-01T20:42:27.476Z,24.73
2019-03-01T20:48:34.779Z,28.73
2019-03-01T20:54:54.178Z,28.93
2019-03-01T20:57:36.255Z,29.27
2019-03-01T21:00:18.471Z,27.73
2019-03-01T21:02:59.903Z,32.13
2019-03-01T21:06:01.718Z,30.30
2019-03-01T21:08:44.406Z,29.87
2019-03-01T21:11:26.551Z,29.33
2019-03-01T21:14:08.219Z,29.20
2019-03-01T21:16:49.615Z,29.40
2019-03-01T21:19:31.758Z,30.57
2019-03-01T21:28:41.831Z,30.07
2019-03-01T21:31:23.734Z,31.00
2019-03-01T21:34:06.006Z,32.20
2019-03-01T21:36:47.539Z,32.13
2019-03-01T21:39:29.815Z,32.83
2019-03-01T21:42:11.837Z,34.70
2019-03-01T21:44:53.655Z,33.20
2019-03-01T21:47:35.091Z,35.23
2019-03-01T21:50:17.099Z,33.40
2019-03-01T21:53:01.697Z,33.30
2019-03-01T21:55:42.262Z,33.90
2019-03-01T21:58:11.997Z,34.17
2019-03-01T22:07:22.966Z,34.20
2019-03-01T22:10:12.029Z,33.27
2019-03-01T22:16:15.129Z,33.53
2019-03-01T22:19:04.187Z,33.27
2019-03-01T22:21:54.705Z,32.60
2019-03-01T22:25:03.342Z,31.97
2019-03-01T22:27:52.749Z,29.67
2019-03-01T22:33:52.660Z,27.77
2019-03-01T22:36:59.898Z,27.07
2019-03-01T22:42:51.083Z,26.83
2019-03-01T22:45:33.078Z,26.10
2019-03-01T22:48:14.547Z,25.87
2019-03-01T22:50:56.188Z,27.47
2019-03-01T22:53:38.555Z,24.87
2019-03-01T22:56:12.036Z,24.53
2019-03-01T22:59:19.674Z,24.83
2019-03-01T23:02:10.427Z,25.67
2019-03-01T23:08:07.458Z,27.17
2019-03-01T23:10:57.027Z,27.90
2019-03-01T23:14:06.516Z,27.90
2019-03-01T23:20:04.298Z,27.50
2019-03-01T23:29:39.542Z,30.63
2019-03-01T23:32:29.456Z,31.10
2019-03-01T23:35:19.025Z,31.47
2019-03-01T23:38:24.266Z,30.47
2019-03-01T23:41:07.779Z,30.77
2019-03-01T23:43:50.420Z,31.30
2019-03-01T23:46:32.801Z,32.20
2019-03-01T23:49:14.238Z,31.93
2019-03-01T23:51:55.430Z,30.40
2019-03-01T23:54:40.600Z,31.27
2019-03-01T23:57:21.276Z,30.63
